createdAt,value
2016-05-28T00:00:58.535Z,18.33
2016-05-28T00:01:58.507Z,18.27
2016-05-28T00:02:58.494Z,18.28
2016-05-28T00:04:58.499Z,18.21
2016-05-28T00:05:58.283Z,18.13
2016-05-28T00:06:58.379Z,18.15
2016-05-28T00:07:58.446Z,18.12
2016-05-28T00:08:58.338Z,18.17
2016-05-28T00:09:58.356Z,18.22
2016-05-28T00:10:58.329Z,18.24
2016-05-28T00:11:58.268Z,18.19
2016-05-28T00:12:58.302Z,18.21
2016-05-28T00:13:58.305Z,18.13
2016-05-28T00:14:58.245Z,18.1
2016-05-28T00:15:58.217Z,18.07
2016-05-28T00:16:58.187Z,18.12
2016-05-28T00:17:58.159Z,18.1
2016-05-28T00:18:57.959Z,18.07
2016-05-28T00:19:57.993Z,18.1
2016-05-28T00:20:58.105Z,18.09
2016-05-28T00:21:57.920Z,18.07
2016-05-28T00:22:58.033Z,18.09
2016-05-28T00:23:58.020Z,18.06
2016-05-28T00:24:57.866Z,18.12
2016-05-28T00:25:58.024Z,18.06
2016-05-28T00:26:57.965Z,18.02
2016-05-28T00:27:57.983Z,18.06
2016-05-28T00:28:57.939Z,18
2016-05-28T00:29:58.020Z,18.07
2016-05-28T00:30:57.913Z,18.12
2016-05-28T00:31:57.728Z,18.03
2016-05-28T00:32:57.825Z,18
2016-05-28T00:33:57.655Z,18.07
2016-05-28T00:34:58.158Z,18.04
2016-05-28T00:35:57.802Z,18.1
2016-05-28T00:36:57.758Z,18.06
2016-05-28T00:37:57.791Z,18.02
2016-05-28T00:38:57.716Z,18.06
2016-05-28T00:39:57.703Z,18.06
2016-05-28T00:40:57.752Z,18.04
2016-05-28T00:41:57.834Z,18.04
2016-05-28T00:42:57.633Z,17.94
2016-05-28T00:43:57.776Z,17.92
2016-05-28T00:44:57.670Z,18.04
2016-05-28T00:45:57.641Z,17.97
2016-05-28T00:46:57.644Z,17.88
2016-05-28T00:47:57.553Z,17.91
2016-05-28T00:48:57.728Z,17.97
2016-05-28T00:49:57.589Z,17.97
2016-05-28T00:50:57.467Z,17.91
2016-05-28T00:51:58.064Z,17.94
2016-05-28T00:52:57.347Z,17.85
2016-05-28T00:53:57.647Z,17.89
2016-05-28T00:54:57.837Z,17.89
2016-05-28T00:55:57.089Z,17.87
2016-05-28T00:56:57.546Z,17.92
2016-05-28T00:57:57.798Z,17.85
2016-05-28T00:58:57.300Z,17.89
2016-05-28T00:59:57.242Z,17.88
2016-05-28T01:00:57.588Z,17.84
2016-05-28T01:01:57.777Z,17.81
2016-05-28T01:02:57.624Z,17.87
2016-05-28T01:03:57.939Z,17.87
2016-05-28T01:04:57.161Z,17.84
2016-05-28T01:05:57.288Z,17.84
2016-05-28T01:06:57.291Z,17.88
2016-05-28T01:07:57.466Z,17.78
2016-05-28T01:08:57.563Z,17.88
2016-05-28T01:09:57.035Z,17.85
2016-05-28T01:10:57.239Z,17.82
2016-05-28T01:11:56.867Z,17.87
2016-05-28T01:12:57.026Z,17.78
2016-05-28T01:13:56.920Z,17.85
2016-05-28T01:14:56.953Z,17.85
2016-05-28T01:15:57.082Z,17.84
2016-05-28T01:16:56.943Z,17.87
2016-05-28T01:17:56.915Z,17.84
2016-05-28T01:18:56.917Z,17.85
2016-05-28T01:19:56.920Z,17.82
2016-05-28T01:20:56.892Z,17.82
2016-05-28T01:21:56.909Z,17.79
2016-05-28T01:22:56.912Z,17.82
2016-05-28T01:23:56.697Z,17.85
2016-05-28T01:24:56.777Z,17.82
2016-05-28T01:25:57.139Z,17.79
2016-05-28T01:26:57.000Z,17.74
2016-05-28T01:27:56.770Z,17.74
2016-05-28T01:28:56.539Z,17.79
2016-05-28T01:29:56.728Z,17.79
2016-05-28T01:30:56.731Z,17.79
2016-05-28T01:31:56.718Z,17.73
2016-05-28T01:32:56.736Z,17.73
2016-05-28T01:33:56.708Z,17.74
2016-05-28T01:34:56.679Z,17.7
2016-05-28T01:35:56.572Z,17.69
2016-05-28T01:36:56.685Z,17.76
2016-05-28T01:37:56.718Z,17.69
2016-05-28T01:38:56.658Z,17.76
2016-05-28T01:39:56.567Z,17.73
2016-05-28T01:40:56.461Z,17.64
2016-05-28T01:41:56.760Z,17.71
2016-05-28T01:42:56.419Z,17.73
2016-05-28T01:43:56.485Z,17.73
2016-05-28T01:44:56.221Z,17.76
2016-05-28T01:45:56.302Z,17.69
2016-05-28T01:47:56.245Z,17.64
2016-05-28T01:48:56.107Z,17.67
2016-05-28T01:49:56.267Z,17.69
2016-05-28T01:50:56.300Z,17.66
2016-05-28T01:51:56.475Z,17.66
2016-05-28T01:52:56.383Z,17.64
2016-05-28T01:53:56.198Z,17.59
2016-05-28T01:54:56.139Z,17.66
2016-05-28T01:55:56.236Z,17.63
2016-05-28T01:56:56.004Z,17.55
2016-05-28T01:57:56.256Z,17.54
2016-05-28T01:58:56.056Z,17.67
2016-05-28T01:59:56.247Z,17.54
2016-05-28T02:00:55.842Z,17.53
2016-05-28T02:01:55.767Z,17.53
2016-05-28T02:02:55.988Z,17.57
2016-05-28T02:03:56.100Z,17.54
2016-05-28T02:04:56.291Z,17.57
2016-05-28T02:05:55.903Z,17.53
2016-05-28T02:06:55.984Z,17.48
2016-05-28T02:07:56.330Z,17.48
2016-05-28T02:08:56.052Z,17.55
2016-05-28T02:09:55.852Z,17.44
2016-05-28T02:10:55.761Z,17.5
2016-05-28T02:11:55.794Z,17.48
2016-05-28T02:12:55.828Z,17.48
2016-05-28T02:13:55.721Z,17.5
2016-05-28T02:14:55.771Z,17.43
2016-05-28T02:15:55.712Z,17.4
2016-05-28T02:16:55.698Z,17.43
2016-05-28T02:17:55.670Z,17.35
2016-05-28T02:18:55.781Z,17.38
2016-05-28T02:19:55.910Z,17.33
2016-05-28T02:20:55.881Z,17.43
2016-05-28T02:21:55.742Z,17.38
2016-05-28T02:22:56.137Z,17.43
2016-05-28T02:23:55.483Z,17.4
2016-05-28T02:24:55.939Z,17.4
2016-05-28T02:25:56.567Z,17.43
2016-05-28T02:26:55.553Z,17.41
2016-05-28T02:27:55.556Z,17.29
2016-05-28T02:28:56.075Z,17.4
2016-05-28T02:29:56.639Z,17.35
2016-05-28T02:30:55.345Z,17.35
2016-05-28T02:31:55.520Z,17.33
2016-05-28T02:32:56.350Z,17.3
2016-05-28T02:33:55.728Z,17.32
2016-05-28T02:34:56.199Z,17.32
2016-05-28T02:35:55.343Z,17.28
2016-05-28T02:36:55.909Z,17.32
2016-05-28T02:37:55.411Z,17.33
2016-05-28T02:38:55.586Z,17.35
2016-05-28T02:39:56.010Z,17.3
2016-05-28T02:40:55.904Z,17.32
2016-05-28T02:41:56.031Z,17.3
2016-05-28T02:42:55.691Z,17.23
2016-05-28T02:43:55.302Z,17.28
2016-05-28T02:44:55.195Z,17.28
2016-05-28T02:45:55.574Z,17.29
2016-05-28T02:46:55.873Z,17.33
2016-05-28T02:47:55.016Z,17.23
2016-05-28T02:48:55.831Z,17.26
2016-05-28T02:49:56.021Z,17.3
2016-05-28T02:50:54.977Z,17.29
2016-05-28T02:51:55.387Z,17.17
2016-05-28T02:52:54.890Z,17.17
2016-05-28T02:53:55.578Z,17.14
2016-05-28T02:54:55.597Z,17.3
2016-05-28T02:55:54.850Z,17.22
2016-05-28T02:56:55.900Z,17.17
2016-05-28T02:57:54.605Z,17.23
2016-05-28T02:58:54.733Z,17.17
2016-05-28T02:59:54.736Z,17.17
2016-05-28T03:00:55.097Z,17.2
2016-05-28T03:01:54.695Z,17.18
2016-05-28T03:02:54.681Z,17.22
2016-05-28T03:03:54.716Z,17.2
2016-05-28T03:04:55.843Z,17.17
2016-05-28T03:05:54.986Z,17.23
2016-05-28T03:06:54.785Z,17.2
2016-05-28T03:07:54.773Z,17.23
2016-05-28T03:08:54.650Z,17.22
2016-05-28T03:09:54.544Z,17.2
2016-05-28T03:10:55.110Z,17.17
2016-05-28T03:11:54.363Z,17.23
2016-05-28T03:12:54.568Z,17.17
2016-05-28T03:13:54.477Z,17.17
2016-05-28T03:14:54.385Z,17.2
2016-05-28T03:15:54.638Z,17.22
2016-05-28T03:16:54.359Z,17.14
2016-05-28T03:17:54.316Z,17.23
2016-05-28T03:18:54.271Z,17.23
2016-05-28T03:19:54.274Z,17.17
2016-05-28T03:20:54.229Z,17.22
2016-05-28T03:21:54.185Z,17.25
2016-05-28T03:22:54.235Z,17.2
2016-05-28T03:23:54.176Z,17.22
2016-05-28T03:24:54.506Z,17.2
2016-05-28T03:25:54.134Z,17.18
2016-05-28T03:26:53.933Z,17.25
2016-05-28T03:27:54.108Z,17.36
2016-05-28T03:28:54.048Z,17.22
2016-05-28T03:29:54.036Z,17.2
2016-05-28T03:30:54.038Z,17.3
2016-05-28T03:31:54.025Z,17.17
2016-05-28T03:32:53.981Z,17.18
2016-05-28T03:33:53.967Z,17.29
2016-05-28T03:34:54.002Z,17.32
2016-05-28T03:35:53.770Z,17.26
2016-05-28T03:36:53.897Z,17.22
2016-05-28T03:37:53.885Z,17.33
2016-05-28T03:38:53.949Z,17.3
2016-05-28T03:39:53.824Z,17.25
2016-05-28T03:40:53.780Z,17.2
2016-05-28T03:41:53.816Z,17.23
2016-05-28T03:42:53.739Z,17.32
2016-05-28T03:43:53.741Z,17.3
2016-05-28T03:44:53.870Z,17.26
2016-05-28T03:45:53.716Z,17.28
2016-05-28T03:46:53.625Z,17.36
2016-05-28T03:47:53.956Z,17.32
2016-05-28T03:48:53.662Z,17.32
2016-05-28T03:49:53.883Z,17.32
2016-05-28T03:50:53.605Z,17.3
2016-05-28T03:51:53.607Z,17.32
2016-05-28T03:52:53.563Z,17.29
2016-05-28T03:53:53.535Z,17.28
2016-05-28T03:54:53.507Z,17.38
2016-05-28T03:55:53.524Z,17.29
2016-05-28T03:56:53.464Z,17.28
2016-05-28T03:57:53.451Z,17.3
2016-05-28T03:58:53.439Z,17.29
2016-05-28T03:59:53.222Z,17.3
2016-05-28T04:00:53.397Z,17.3
2016-05-28T04:01:53.337Z,17.26
2016-05-28T04:02:53.715Z,17.28
2016-05-28T04:03:53.343Z,17.36
2016-05-28T04:04:53.877Z,17.41
2016-05-28T04:05:53.286Z,17.35
2016-05-28T04:06:53.258Z,17.36
2016-05-28T04:07:53.260Z,17.4
2016-05-28T04:08:53.027Z,17.4
2016-05-28T04:09:53.203Z,17.4
2016-05-28T04:10:53.189Z,17.4
2016-05-28T04:11:53.114Z,17.35
2016-05-28T04:12:53.117Z,17.35
2016-05-28T04:13:53.104Z,17.38
2016-05-28T04:14:53.122Z,17.44
2016-05-28T04:15:53.063Z,17.36
2016-05-28T04:16:53.003Z,17.43
2016-05-28T04:17:52.974Z,17.46
2016-05-28T04:18:52.836Z,17.47
2016-05-28T04:19:52.855Z,17.4
2016-05-28T04:20:53.076Z,17.4
2016-05-28T04:21:52.907Z,17.4
2016-05-28T04:22:52.737Z,17.4
2016-05-28T04:23:52.724Z,17.4
2016-05-28T04:24:52.837Z,17.48
2016-05-28T04:25:52.840Z,17.48
2016-05-28T04:26:52.842Z,17.47
2016-05-28T04:27:52.829Z,17.5
2016-05-28T04:28:52.675Z,17.57
2016-05-28T04:29:52.740Z,17.47
2016-05-28T04:30:52.790Z,17.47
2016-05-28T04:31:52.667Z,17.4
2016-05-28T04:32:52.686Z,17.55
2016-05-28T04:33:52.501Z,17.57
2016-05-28T04:34:53.066Z,17.54
2016-05-28T04:35:52.631Z,17.51
2016-05-28T04:36:52.603Z,17.53
2016-05-28T04:37:52.559Z,17.51
2016-05-28T04:38:52.594Z,17.53
2016-05-28T04:39:52.549Z,17.57
2016-05-28T04:40:52.661Z,17.51
2016-05-28T04:41:52.477Z,17.62
2016-05-28T04:42:52.479Z,17.54
2016-05-28T04:43:52.435Z,17.57
2016-05-28T04:44:52.438Z,17.57
2016-05-28T04:45:52.378Z,17.57
2016-05-28T04:46:52.240Z,17.59
2016-05-28T04:47:52.258Z,17.62
2016-05-28T04:48:52.339Z,17.67
2016-05-28T04:49:52.529Z,17.59
2016-05-28T04:50:52.329Z,17.57
2016-05-28T04:51:52.269Z,17.7
2016-05-28T04:52:52.146Z,17.66
2016-05-28T04:53:52.243Z,17.66
2016-05-28T04:54:52.230Z,17.67
2016-05-28T04:55:52.201Z,17.63
2016-05-28T04:56:52.173Z,17.62
2016-05-28T04:57:52.003Z,17.59
2016-05-28T04:58:52.147Z,17.62
2016-05-28T04:59:52.118Z,17.67
2016-05-28T05:00:52.137Z,17.62
2016-05-28T05:01:52.233Z,17.69
2016-05-28T05:02:52.329Z,17.67
2016-05-28T05:03:51.973Z,17.63
2016-05-28T05:04:52.053Z,17.63
2016-05-28T05:05:52.041Z,17.64
2016-05-28T05:06:51.824Z,17.66
2016-05-28T05:07:51.967Z,17.69
2016-05-28T05:08:51.762Z,17.63
2016-05-28T05:09:51.929Z,17.64
2016-05-28T05:10:51.941Z,17.66
2016-05-28T05:11:51.936Z,17.67
2016-05-28T05:12:52.182Z,17.7
2016-05-28T05:13:51.954Z,17.7
2016-05-28T05:14:51.951Z,17.71
2016-05-28T05:15:51.868Z,17.66
2016-05-28T05:16:51.723Z,17.66
2016-05-28T05:17:51.922Z,17.67
2016-05-28T05:18:51.682Z,17.63
2016-05-28T05:19:52.171Z,17.73
2016-05-28T05:20:51.801Z,17.69
2016-05-28T05:21:52.449Z,17.76
2016-05-28T05:22:52.627Z,17.73
2016-05-28T05:23:52.537Z,17.76
2016-05-28T05:25:05.342Z,17.69
2016-05-28T05:25:52.248Z,17.76
2016-05-28T05:26:52.409Z,17.71
2016-05-28T05:28:05.431Z,17.76
2016-05-28T05:29:05.419Z,17.7
2016-05-28T05:29:52.637Z,17.74
2016-05-28T05:30:52.156Z,17.76
2016-05-28T05:31:52.285Z,17.76
2016-05-28T05:32:52.100Z,17.74
2016-05-28T05:33:52.103Z,17.76
2016-05-28T05:34:52.074Z,17.84
2016-05-28T05:35:51.982Z,17.79
2016-05-28T05:36:52.565Z,17.78
2016-05-28T05:37:52.098Z,17.81
2016-05-28T05:38:52.335Z,17.84
2016-05-28T05:39:52.165Z,17.76
2016-05-28T05:40:52.450Z,17.84
2016-05-28T05:41:52.078Z,17.82
2016-05-28T05:42:53.112Z,17.87
2016-05-28T05:43:51.348Z,17.88
2016-05-28T05:44:51.617Z,17.91
2016-05-28T05:45:51.901Z,17.99
2016-05-28T05:46:51.685Z,17.92
2016-05-28T05:47:51.562Z,17.92
2016-05-28T05:48:51.971Z,17.95
2016-05-28T05:50:05.508Z,17.95
2016-05-28T05:50:52.008Z,17.94
2016-05-28T05:51:51.433Z,18.07
2016-05-28T05:52:51.608Z,17.97
2016-05-28T05:53:51.594Z,18.04
2016-05-28T05:54:51.300Z,18.09
2016-05-28T05:55:51.224Z,18.12
2016-05-28T05:56:51.369Z,18.02
2016-05-28T05:57:51.292Z,18.06
2016-05-28T05:58:51.186Z,18.09
2016-05-28T05:59:51.298Z,18.09
2016-05-28T06:00:51.441Z,18.12
2016-05-28T06:01:51.538Z,18.15
2016-05-28T06:02:51.180Z,18.17
2016-05-28T06:03:51.294Z,18.19
2016-05-28T06:04:51.233Z,18.22
2016-05-28T06:05:52.033Z,18.13
2016-05-28T06:06:51.410Z,18.15
2016-05-28T06:07:51.256Z,18.15
2016-05-28T06:08:51.337Z,18.21
2016-05-28T06:09:51.419Z,18.28
2016-05-28T06:10:51.452Z,18.29
2016-05-28T06:11:51.486Z,18.24
2016-05-28T06:12:51.254Z,18.36
2016-05-28T06:13:51.585Z,18.28
2016-05-28T06:14:51.588Z,18.33
2016-05-28T06:15:51.294Z,18.28
2016-05-28T06:16:51.187Z,18.39
2016-05-28T06:17:51.018Z,18.39
2016-05-28T06:18:51.365Z,18.42
2016-05-28T06:19:51.461Z,18.4
2016-05-28T06:20:51.433Z,18.44
2016-05-28T06:21:51.404Z,18.39
2016-05-28T06:22:51.047Z,18.37
2016-05-28T06:23:51.284Z,18.4
2016-05-28T06:24:50.475Z,18.4
2016-05-28T06:25:50.430Z,18.46
2016-05-28T06:26:50.589Z,18.4
2016-05-28T06:27:50.405Z,18.5
2016-05-28T06:28:50.407Z,18.54
2016-05-28T06:29:50.332Z,18.49
2016-05-28T06:30:50.366Z,18.55
2016-05-28T06:31:50.337Z,18.52
2016-05-28T06:32:51.136Z,18.5
2016-05-28T06:33:50.124Z,18.5
2016-05-28T06:34:52.299Z,18.57
2016-05-28T06:35:50.269Z,18.57
2016-05-28T06:36:50.179Z,18.55
2016-05-28T06:37:50.212Z,18.54
2016-05-28T06:38:50.231Z,18.49
2016-05-28T06:39:50.187Z,18.49
2016-05-28T06:40:49.987Z,18.46
2016-05-28T06:41:50.114Z,18.61
2016-05-28T06:42:50.476Z,18.57
2016-05-28T06:43:50.041Z,18.57
2016-05-28T06:44:50.028Z,18.55
2016-05-28T06:45:50.015Z,18.7
2016-05-28T06:46:50.048Z,18.68
2016-05-28T06:47:50.006Z,18.73
2016-05-28T06:48:49.961Z,18.7
2016-05-28T06:49:49.948Z,18.76
2016-05-28T06:50:49.731Z,18.72
2016-05-28T06:51:49.906Z,18.82
2016-05-28T06:52:49.909Z,18.82
2016-05-28T06:53:49.708Z,18.8
2016-05-28T06:54:49.696Z,18.84
2016-05-28T06:55:49.714Z,18.9
2016-05-28T06:56:49.825Z,18.86
2016-05-28T06:57:49.798Z,18.91
2016-05-28T06:58:49.786Z,18.91
2016-05-28T06:59:49.725Z,18.95
2016-05-28T07:00:49.758Z,19.02
2016-05-28T07:01:49.777Z,19.02
2016-05-28T07:02:49.546Z,18.99
2016-05-28T07:03:49.501Z,19.11
2016-05-28T07:04:49.957Z,19.14
2016-05-28T07:05:49.600Z,19.17
2016-05-28T07:06:49.477Z,19.13
2016-05-28T07:07:50.059Z,19.18
2016-05-28T07:08:49.562Z,19.18
2016-05-28T07:09:49.580Z,19.18
2016-05-28T07:10:49.504Z,19.17
2016-05-28T07:11:49.476Z,19.23
2016-05-28T07:12:49.493Z,19.21
2016-05-28T07:13:49.481Z,19.24
2016-05-28T07:14:49.421Z,19.29
2016-05-28T07:15:49.423Z,19.32
2016-05-28T07:16:49.380Z,19.33
2016-05-28T07:17:49.367Z,19.35
2016-05-28T07:18:49.167Z,19.38
2016-05-28T07:19:49.387Z,19.43
2016-05-28T07:20:49.312Z,19.48
2016-05-28T07:21:49.330Z,19.35
2016-05-28T07:22:49.240Z,19.4
2016-05-28T07:23:49.258Z,19.5
2016-05-28T07:24:49.245Z,19.46
2016-05-28T07:25:49.217Z,19.57
2016-05-28T07:26:49.172Z,19.61
2016-05-28T07:27:49.566Z,19.53
2016-05-28T07:28:49.146Z,19.63
2016-05-28T07:29:49.025Z,19.66
2016-05-28T07:30:49.136Z,19.69
2016-05-28T07:31:49.076Z,19.7
2016-05-28T07:32:49.158Z,19.72
2016-05-28T07:33:49.036Z,19.84
2016-05-28T07:34:49.335Z,19.75
2016-05-28T07:35:49.196Z,19.76
2016-05-28T07:36:49.574Z,19.79
2016-05-28T07:37:49.046Z,19.79
2016-05-28T07:38:49.501Z,19.88
2016-05-28T07:39:48.973Z,19.86
2016-05-28T07:40:48.538Z,19.86
2016-05-28T07:42:48.918Z,19.88
2016-05-28T07:43:49.296Z,19.86
2016-05-28T07:44:48.862Z,19.91
2016-05-28T07:45:48.770Z,19.95
2016-05-28T07:46:48.882Z,19.9
2016-05-28T07:47:48.775Z,19.9
2016-05-28T07:48:48.872Z,20.02
2016-05-28T07:49:48.781Z,20.05
2016-05-28T07:50:48.659Z,19.98
2016-05-28T07:51:48.755Z,20.06
2016-05-28T07:52:48.648Z,20.06
2016-05-28T07:53:48.761Z,20.02
2016-05-28T07:54:48.935Z,20.1
2016-05-28T07:55:48.609Z,20.09
2016-05-28T07:56:48.597Z,20.15
2016-05-28T07:57:48.615Z,20.1
2016-05-28T07:58:48.572Z,20.09
2016-05-28T07:59:48.589Z,20.1
2016-05-28T08:00:48.497Z,20.15
2016-05-28T08:01:48.470Z,20.12
2016-05-28T08:02:48.441Z,20.16
2016-05-28T08:03:48.366Z,20.12
2016-05-28T08:04:48.712Z,20.15
2016-05-28T08:05:48.386Z,20.12
2016-05-28T08:06:48.499Z,20.13
2016-05-28T08:07:48.360Z,20.21
2016-05-28T08:08:48.379Z,20.13
2016-05-28T08:09:48.522Z,20.13
2016-05-28T08:10:48.322Z,20.16
2016-05-28T08:11:48.152Z,20.23
2016-05-28T08:12:51.155Z,20.25
2016-05-28T08:13:48.065Z,20.25
2016-05-28T08:14:48.207Z,20.33
2016-05-28T08:15:48.163Z,20.27
2016-05-28T08:16:48.541Z,20.38
2016-05-28T08:17:48.137Z,20.41
2016-05-28T08:18:48.890Z,20.41
2016-05-28T08:19:47.940Z,20.46
2016-05-28T08:20:48.286Z,20.41
2016-05-28T08:21:48.040Z,20.5
2016-05-28T08:22:48.167Z,20.43
2016-05-28T08:23:48.013Z,20.42
2016-05-28T08:24:48.016Z,20.53
2016-05-28T08:25:47.972Z,20.47
2016-05-28T08:26:47.942Z,20.56
2016-05-28T08:27:47.962Z,20.53
2016-05-28T08:28:47.995Z,20.59
2016-05-28T08:29:47.920Z,20.54
2016-05-28T08:30:47.861Z,20.59
2016-05-28T08:31:47.878Z,20.59
2016-05-28T08:32:48.303Z,20.51
2016-05-28T08:33:47.680Z,20.56
2016-05-28T08:34:47.949Z,20.56
2016-05-28T08:35:47.702Z,20.61
2016-05-28T08:36:47.766Z,20.65
2016-05-28T08:37:47.722Z,20.72
2016-05-28T08:38:47.772Z,20.68
2016-05-28T08:39:47.572Z,20.86
2016-05-28T08:40:47.731Z,20.84
2016-05-28T08:41:47.546Z,20.84
2016-05-28T08:42:47.643Z,20.84
2016-05-28T08:43:47.660Z,20.9
2016-05-28T08:44:47.663Z,20.9
2016-05-28T08:45:47.557Z,20.83
2016-05-28T08:46:47.591Z,20.91
2016-05-28T08:47:47.531Z,20.91
2016-05-28T08:48:47.534Z,20.89
2016-05-28T08:49:47.490Z,20.93
2016-05-28T08:50:47.540Z,20.98
2016-05-28T08:51:47.479Z,20.93
2016-05-28T08:52:47.856Z,20.93
2016-05-28T08:53:47.579Z,20.96
2016-05-28T08:54:47.440Z,21.01
2016-05-28T08:55:47.912Z,20.98
2016-05-28T08:56:47.384Z,20.96
2016-05-28T08:57:47.386Z,20.96
2016-05-28T08:58:47.357Z,20.96
2016-05-28T08:59:47.391Z,20.95
2016-05-28T09:00:47.269Z,20.93
2016-05-28T09:01:47.319Z,21.01
2016-05-28T09:02:47.274Z,20.87
2016-05-28T09:03:47.075Z,20.91
2016-05-28T09:04:47.061Z,20.86
2016-05-28T09:05:47.502Z,20.91
2016-05-28T09:06:47.019Z,20.87
2016-05-28T09:07:47.241Z,20.91
2016-05-28T09:08:47.180Z,20.98
2016-05-28T09:09:47.168Z,21.02
2016-05-28T09:10:47.077Z,20.95
2016-05-28T09:11:48.205Z,20.98
2016-05-28T09:12:47.051Z,20.89
2016-05-28T09:13:47.007Z,20.99
2016-05-28T09:14:46.854Z,20.99
2016-05-28T09:15:47.060Z,21.01
2016-05-28T09:16:46.999Z,20.99
2016-05-28T09:17:46.940Z,20.99
2016-05-28T09:18:46.693Z,21.06
2016-05-28T09:19:47.710Z,21.09
2016-05-28T09:20:46.870Z,21.13
2016-05-28T09:21:46.887Z,21.16
2016-05-28T09:22:46.907Z,21.11
2016-05-28T09:23:46.893Z,21.16
2016-05-28T09:24:46.834Z,21.17
2016-05-28T09:25:46.774Z,21.26
2016-05-28T09:26:46.777Z,21.24
2016-05-28T09:27:46.826Z,21.36
2016-05-28T09:28:46.719Z,21.34
2016-05-28T09:29:46.706Z,21.42
2016-05-28T09:30:46.553Z,21.45
2016-05-28T09:31:46.525Z,21.38
2016-05-28T09:32:46.684Z,21.38
2016-05-28T09:33:46.419Z,21.41
2016-05-28T09:34:46.516Z,21.39
2016-05-28T09:35:46.769Z,21.45
2016-05-28T09:36:47.225Z,21.48
2016-05-28T09:37:46.758Z,21.51
2016-05-28T09:38:46.621Z,21.44
2016-05-28T09:39:46.593Z,21.45
2016-05-28T09:40:46.516Z,21.54
2016-05-28T09:41:46.474Z,21.54
2016-05-28T09:42:46.741Z,21.67
2016-05-28T09:43:46.416Z,21.79
2016-05-28T09:44:46.402Z,21.85
2016-05-28T09:45:46.452Z,21.88
2016-05-28T09:46:46.221Z,21.9
2016-05-28T09:47:46.224Z,21.98
2016-05-28T09:48:46.399Z,22.04
2016-05-28T09:49:46.385Z,21.98
2016-05-28T09:50:46.356Z,22.06
2016-05-28T09:51:47.593Z,22.1
2016-05-28T09:52:48.409Z,22.06
2016-05-28T09:53:46.161Z,22.13
2016-05-28T09:54:46.273Z,22.14
2016-05-28T09:55:46.229Z,22.16
2016-05-28T09:56:50.560Z,22.06
2016-05-28T09:57:46.187Z,22.02
2016-05-28T09:58:46.534Z,22.14
2016-05-28T09:59:48.975Z,22.13
2016-05-28T10:00:46.134Z,22.09
2016-05-28T10:01:49.355Z,22.16
2016-05-28T10:02:46.107Z,22.04
2016-05-28T10:03:46.125Z,22.14
2016-05-28T10:04:46.254Z,22.17
2016-05-28T10:05:46.038Z,22.17
2016-05-28T10:06:51.649Z,22.16
2016-05-28T10:07:59.747Z,22.14
2016-05-28T10:08:46.186Z,22.19
2016-05-28T10:09:46.408Z,22.35
2016-05-28T10:10:59.692Z,22.43
2016-05-28T10:11:45.820Z,22.37
2016-05-28T10:12:46.338Z,22.35
2016-05-28T10:13:45.887Z,22.38
2016-05-28T10:14:46.093Z,22.43
2016-05-28T10:15:45.674Z,22.35
2016-05-28T10:16:51.458Z,22.35
2016-05-28T10:17:46.461Z,22.37
2016-05-28T10:18:46.088Z,22.38
2016-05-28T10:19:46.544Z,22.41
2016-05-28T10:20:46.218Z,22.38
2016-05-28T10:21:48.221Z,22.34
2016-05-28T10:22:46.318Z,22.35
2016-05-28T10:23:45.712Z,22.41
2016-05-28T10:24:46.104Z,22.31
2016-05-28T10:25:46.012Z,22.38
2016-05-28T10:26:50.157Z,22.38
2016-05-28T10:27:45.612Z,22.43
2016-05-28T10:28:45.631Z,22.34
2016-05-28T10:29:45.945Z,22.41
2016-05-28T10:30:46.105Z,22.43
2016-05-28T10:31:45.873Z,22.34
2016-05-28T10:32:45.532Z,22.38
2016-05-28T10:33:45.378Z,22.35
2016-05-28T10:34:45.522Z,22.34
2016-05-28T10:35:45.790Z,22.37
2016-05-28T10:36:59.386Z,22.41
2016-05-28T10:37:46.202Z,22.57
2016-05-28T10:38:45.938Z,22.59
2016-05-28T10:39:45.613Z,22.54
2016-05-28T10:40:45.616Z,22.68
2016-05-28T10:41:48.369Z,22.75
2016-05-28T10:42:46.730Z,22.69
2016-05-28T10:43:45.515Z,22.83
2016-05-28T10:44:46.283Z,22.87
2016-05-28T10:45:45.426Z,22.89
2016-05-28T10:46:45.616Z,22.92
2016-05-28T10:47:59.010Z,23.01
2016-05-28T10:48:45.231Z,23.07
2016-05-28T10:49:45.531Z,23.09
2016-05-28T10:50:46.065Z,23.08
2016-05-28T10:51:45.318Z,23.09
2016-05-28T10:52:45.945Z,23.07
2016-05-28T10:53:44.932Z,23.14
2016-05-28T10:54:45.123Z,23.05
2016-05-28T10:55:46.266Z,23.14
2016-05-28T10:56:45.425Z,23.12
2016-05-28T10:57:58.787Z,23.14
2016-05-28T10:58:45.227Z,23.19
2016-05-28T11:00:00.604Z,23.24
2016-05-28T11:00:45.436Z,23.31
2016-05-28T11:01:44.953Z,23.4
2016-05-28T11:02:44.973Z,23.39
2016-05-28T11:03:45.506Z,23.31
2016-05-28T11:04:47.165Z,23.35
2016-05-28T11:05:58.652Z,23.23
2016-05-28T11:06:59.092Z,23.24
2016-05-28T11:07:59.064Z,23.31
2016-05-28T11:08:45.082Z,23.29
2016-05-28T11:09:44.866Z,23.24
2016-05-28T11:10:44.978Z,23.31
2016-05-28T11:11:45.136Z,23.24
2016-05-28T11:12:44.702Z,23.26
2016-05-28T11:13:46.127Z,23.26
2016-05-28T11:14:44.974Z,23.23
2016-05-28T11:15:45.319Z,23.31
2016-05-28T11:16:44.807Z,23.32
2016-05-28T11:17:44.232Z,23.27
2016-05-28T11:18:45.000Z,23.35
2016-05-28T11:19:58.924Z,23.39
2016-05-28T11:20:44.661Z,23.34
2016-05-28T11:21:44.821Z,23.35
2016-05-28T11:22:45.136Z,23.32
2016-05-28T11:23:46.262Z,23.38
2016-05-28T11:24:45.437Z,23.46
2016-05-28T11:25:45.237Z,23.53
2016-05-28T11:26:45.256Z,23.52
2016-05-28T11:27:58.586Z,23.7
2016-05-28T11:28:45.432Z,23.62
2016-05-28T11:29:45.326Z,23.64
2016-05-28T11:30:58.157Z,23.65
2016-05-28T11:31:44.378Z,23.67
2016-05-28T11:32:44.678Z,23.65
2016-05-28T11:33:44.103Z,23.61
2016-05-28T11:34:44.903Z,23.75
2016-05-28T11:35:44.420Z,23.8
2016-05-28T11:36:44.828Z,23.82
2016-05-28T11:37:46.925Z,23.8
2016-05-28T11:38:44.959Z,23.83
2016-05-28T11:39:44.494Z,23.89
2016-05-28T11:40:45.589Z,23.86
2016-05-28T11:41:45.437Z,23.95
2016-05-28T11:42:45.314Z,23.95
2016-05-28T11:44:45.069Z,24
2016-05-28T11:45:44.478Z,24.08
2016-05-28T11:46:45.325Z,24.16
2016-05-28T11:47:45.234Z,24.22
2016-05-28T11:48:46.643Z,24.31
2016-05-28T11:49:46.707Z,24.32
2016-05-28T11:50:44.914Z,24.53
2016-05-28T11:51:44.651Z,24.97
2016-05-28T11:52:45.669Z,25.47
2016-05-28T11:53:44.984Z,26.04
2016-05-28T11:54:44.924Z,26.42
2016-05-28T11:55:45.146Z,26.83
2016-05-28T11:56:44.087Z,27.04
2016-05-28T11:57:48.526Z,27.23
2016-05-28T11:58:44.545Z,27.32
2016-05-28T11:59:44.937Z,27.29
2016-05-28T12:00:44.051Z,27.35
2016-05-28T12:01:44.115Z,27.21
2016-05-28T12:02:46.446Z,27.32
2016-05-28T12:03:43.886Z,27.39
2016-05-28T12:04:44.515Z,27.43
2016-05-28T12:05:46.157Z,27.21
2016-05-28T12:06:45.972Z,27.2
2016-05-28T12:07:47.617Z,27.17
2016-05-28T12:09:43.840Z,27.54
2016-05-28T12:10:44.375Z,27.33
2016-05-28T12:11:43.736Z,27.17
2016-05-28T12:12:44.957Z,27.19
2016-05-28T12:13:44.351Z,27.51
2016-05-28T12:14:44.431Z,27.92
2016-05-28T12:15:57.528Z,28.16
2016-05-28T12:16:44.202Z,27.82
2016-05-28T12:17:46.236Z,27.48
2016-05-28T12:18:43.724Z,27.28
2016-05-28T12:19:43.852Z,27.09
2016-05-28T12:20:43.916Z,26.96
2016-05-28T12:21:44.107Z,26.83
2016-05-28T12:22:47.921Z,26.81
2016-05-28T12:24:43.568Z,26.69
2016-05-28T12:25:43.727Z,26.61
2016-05-28T12:26:44.073Z,26.61
2016-05-28T12:27:44.373Z,26.59
2016-05-28T12:28:44.140Z,26.49
2016-05-28T12:30:43.474Z,26.36
2016-05-28T12:31:43.523Z,26.39
2016-05-28T12:32:46.526Z,26.28
2016-05-28T12:33:44.982Z,26.2
2016-05-28T12:34:44.314Z,26.24
2016-05-28T12:35:43.878Z,26.18
2016-05-28T12:36:43.507Z,26.18
2016-05-28T12:37:47.853Z,26.21
2016-05-28T12:38:44.528Z,26.22
2016-05-28T12:39:44.406Z,26.22
2016-05-28T12:40:44.205Z,26.17
2016-05-28T12:41:43.411Z,26.08
2016-05-28T12:42:47.428Z,25.98
2016-05-28T12:43:43.259Z,26.02
2016-05-28T12:44:45.434Z,26.01
2016-05-28T12:45:44.061Z,26.05
2016-05-28T12:46:44.206Z,26.09
2016-05-28T12:47:43.130Z,26.08
2016-05-28T12:48:43.304Z,26.15
2016-05-28T12:49:43.244Z,26.15
2016-05-28T12:50:43.810Z,26.11
2016-05-28T12:51:43.296Z,26.4
2016-05-28T12:52:44.080Z,26.54
2016-05-28T12:53:46.599Z,26.61
2016-05-28T12:54:44.038Z,26.44
2016-05-28T12:55:47.588Z,26.35
2016-05-28T12:56:43.591Z,26.36
2016-05-28T12:57:43.875Z,26.12
2016-05-28T12:58:43.268Z,26.01
2016-05-28T12:59:43.085Z,25.98
2016-05-28T13:00:43.102Z,25.9
2016-05-28T13:01:43.854Z,26.05
2016-05-28T13:02:44.202Z,26.21